Date,TemperatureHighF,TemperatureAvgF,TemperatureLowF,DewpointHighF,DewpointAvgF,DewpointLowF,HumidityHigh,HumidityAvg,HumidityLow,PressureMaxIn,PressureMinIn,WindSpeedMaxMPH,WindSpeedAvgMPH,GustSpeedMaxMPH,PrecipitationSumIn
2013-1-1,24.4,18.0,5.0,13.0,9.2,-3.4,78,68,60,30.16,30.04,4,1,6,0.06
2013-1-2,28.0,6.6,-0.4,23.0,-0.7,-9.8,85,71,63,30.08,29.96,2,0,4,0.01
2013-1-3,32.5,25.2,6.6,22.9,17.0,-0.8,84,71,62,30.29,30.10,3,1,8,0.01
2013-1-4,38.5,26.8,5.9,25.9,15.8,-1.8,80,64,51,30.16,29.92,6,1,11,0.01
2013-1-5,41.0,36.9,28.2,30.2,27.6,17.2,76,69,58,30.06,29.89,6,5,14,0.00
2013-1-6,45.7,26.8,18.0,26.3,17.0,9.2,73,67,47,30.21,29.94,5,1,8,0.00
2013-1-7,50.4,41.6,31.8,29.3,25.9,19.9,64,55,44,29.97,29.75,8,4,14,0.00
2013-1-8,53.4,42.6,34.3,34.3,29.7,24.3,74,62,44,29.99,29.69,10,4,21,0.00
2013-1-9,51.3,38.3,24.4,35.6,28.9,19.4,85,70,53,30.28,30.09,6,1,10,0.00
2013-1-10,44.6,41.8,37.9,43.1,39.9,35.0,96,93,87,29.91,29.48,4,1,7,0.40
2013-1-11,58.8,50.6,30.2,44.8,39.9,8.4,95,72,19,29.71,29.29,11,7,24,0.01
2013-1-12,27.5,23.9,17.2,15.4,9.8,4.0,71,55,47,29.98,29.74,8,5,13,0.00
2013-1-13,25.7,16.3,9.7,3.9,1.1,-1.3,65,52,37,30.18,30.01,6,3,11,0.00
2013-1-14,30.6,21.6,7.2,12.6,5.0,-2.0,71,51,31,30.32,30.17,3,1,7,0.00
2013-1-15,35.6,25.9,10.9,15.2,10.7,2.6,73,54,33,30.17,29.91,4,1,8,0.00
2013-1-16,54.9,39.3,20.5,31.6,24.2,11.4,68,57,41,29.93,29.55,7,2,12,0.00
2013-1-17,56.1,40.0,24.6,32.3,25.3,18.3,82,59,34,30.32,30.17,4,1,8,0.00
2013-1-18,62.8,50.6,36.3,32.6,27.9,23.5,68,46,26,30.05,29.85,12,6,24,0.00
2013-1-19,62.1,49.2,31.5,30.0,24.4,18.1,75,44,22,30.03,29.77,8,3,14,0.00
2013-1-20,35.8,30.3,20.8,18.9,12.5,7.4,75,49,34,30.23,30.07,8,4,12,0.00
2013-1-21,33.8,23.8,13.8,18.7,11.8,4.2,77,61,47,30.27,30.11,4,2,10,0.00
2013-1-22,36.0,24.1,12.0,13.8,8.7,3.3,68,53,39,30.16,30.03,5,2,11,0.00
2013-1-23,48.0,31.5,13.3,26.3,18.0,6.8,79,59,41,30.20,29.98,9,3,17,0.00
2013-1-24,29.8,21.7,12.0,12.5,0.8,-5.6,67,44,25,30.30,29.94,5,3,11,0.00
2013-1-25,51.3,35.4,17.2,24.8,17.8,7.5,71,52,34,30.10,29.94,3,1,7,0.00
2013-1-26,61.0,47.8,26.4,40.2,22.4,11.8,88,45,18,30.04,29.72,10,3,23,0.05
2013-1-27,64.9,51.6,30.9,55.9,47.0,28.6,99,85,59,29.69,29.50,11,6,25,0.01
2013-1-28,72.7,52.8,29.7,57.7,43.5,27.8,99,76,33,29.66,29.44,12,4,22,0.00
2013-1-29,37.8,36.3,30.4,37.0,31.9,29.9,98,84,77,29.59,29.41,8,5,16,0.00
2013-1-30,29.7,24.1,14.9,29.4,17.0,7.6,99,75,60,29.83,29.53,13,6,20,0.00
2013-1-31,22.1,19.0,10.8,16.7,8.7,-1.2,84,65,48,30.27,29.77,10,4,16,0.00
2013-2-1,35.6,31.0,26.8,23.9,17.4,12.5,79,58,42,29.98,29.91,7,2,11,0.00
2013-2-2,53.2,46.8,28.0,35.9,32.5,23.0,85,59,48,30.08,29.99,4,3,10,0.00
2013-2-3,56.3,44.6,25.5,30.6,24.7,17.1,77,50,27,30.10,29.59,8,3,16,0.00
2013-2-4,45.9,37.9,26.6,32.9,28.2,19.9,79,69,58,29.84,29.60,6,2,11,0.00
2013-2-5,61.2,48.6,25.2,34.1,29.3,20.8,88,52,27,29.90,29.72,5,2,9,0.00
2013-2-6,62.1,49.8,27.9,51.9,41.2,22.3,98,74,47,29.85,29.65,10,4,24,0.06
2013-2-7,54.3,46.6,26.6,50.3,38.5,21.8,99,76,43,30.05,29.65,10,7,19,0.92
2013-2-8,41.0,32.9,27.1,34.3,28.8,23.5,94,85,76,30.17,29.87,4,2,11,0.00
2013-2-9,53.1,42.9,32.2,43.0,36.6,28.5,94,79,66,29.85,28.92,9,4,24,0.07
2013-2-10,46.2,40.5,32.4,44.0,27.5,21.2,92,61,54,29.83,28.85,11,7,27,0.01
2013-2-11,44.6,35.4,24.4,21.0,18.0,13.7,76,52,31,30.08,29.85,7,2,12,0.00
2013-2-12,43.7,35.3,23.9,26.2,22.8,17.8,82,62,45,29.97,29.76,4,2,8,0.00
2013-2-13,57.4,43.2,24.8,25.6,19.1,12.9,70,44,22,29.80,29.68,5,2,13,0.00
2013-2-14,47.7,41.1,24.3,33.8,27.3,16.8,82,60,39,30.14,29.81,12,4,19,0.00
2013-2-15,40.5,31.5,17.8,19.5,15.0,9.9,79,53,36,30.27,30.11,12,3,19,0.00
2013-2-16,53.8,34.3,15.1,26.9,16.6,6.8,77,53,26,30.16,29.77,9,3,18,0.00
2013-2-17,70.7,50.3,20.8,35.8,25.7,15.9,85,48,16,29.76,29.31,10,3,17,0.00
2013-2-18,52.3,41.4,23.4,34.3,25.8,14.0,78,56,37,29.94,29.26,17,9,26,0.00
2013-2-19,39.6,30.3,20.7,15.8,9.0,-2.9,72,45,21,30.19,29.96,7,3,13,0.00
2013-2-20,29.3,23.9,20.5,22.8,13.1,-24.8,84,65,38,30.12,29.85,6,4,13,0.00
2013-2-21,22.8,20.9,15.3,18.7,17.5,10.8,89,86,74,29.82,29.59,6,3,13,0.00
2013-2-22,26.6,18.2,9.3,13.4,8.6,0.4,80,66,56,29.92,29.72,5,2,9,0.08
2013-2-23,37.4,21.4,-2.4,26.6,12.0,-10.8,76,67,60,29.83,29.70,5,2,10,0.05
2013-2-24,42.8,31.0,10.6,30.5,22.1,5.2,88,70,59,29.78,29.68,7,2,11,0.00
2013-2-25,35.4,33.5,31.3,30.0,28.8,26.8,93,83,76,29.83,29.62,13,7,21,0.08
2013-2-26,36.0,31.6,26.6,26.6,24.6,21.3,91,75,65,29.74,29.59,9,7,14,0.00
2013-2-27,39.2,33.3,27.1,26.9,24.4,20.8,90,71,56,30.00,29.75,12,6,20,0.00
2013-2-28,36.0,33.0,28.8,25.7,24.8,22.8,78,72,63,30.11,29.96,8,4,14,0.00
2013-3-1,33.8,30.0,19.6,23.7,19.8,12.9,76,66,57,30.19,30.02,10,5,15,0.00
2013-3-2,35.4,22.6,14.9,21.7,14.6,8.5,79,71,58,30.20,30.13,2,1,6,0.00
2013-3-3,49.1,42.8,26.1,37.2,33.5,19.8,82,70,63,29.75,29.44,5,2,11,0.00
2013-3-4,42.6,36.5,27.9,36.5,31.1,19.0,88,81,55,29.93,29.42,11,5,17,0.02
2013-3-5,42.3,34.1,22.6,21.2,16.5,11.2,67,50,41,30.21,29.96,14,7,21,0.01
2013-3-6,45.1,32.8,17.4,24.6,18.1,8.9,76,57,34,30.27,29.94,5,2,14,0.01
2013-3-7,64.6,51.0,27.1,32.4,26.0,20.0,79,44,24,29.96,29.84,7,4,16,0.00
2013-3-8,64.8,51.1,33.3,49.4,40.9,27.9,87,69,54,29.90,29.58,8,4,16,0.01
2013-3-9,63.5,56.0,50.5,57.1,53.2,46.3,100,91,76,29.59,29.38,11,5,22,0.41
2013-3-10,34.9,28.0,25.7,31.7,23.3,19.4,93,82,73,29.86,29.50,15,11,24,0.00
2013-3-11,43.2,32.7,14.9,26.7,18.0,8.5,77,56,39,29.87,29.77,6,2,11,0.00
2013-3-12,48.4,40.4,32.0,31.9,21.5,7.5,83,52,24,30.15,29.90,12,5,22,0.00
2013-3-13,56.5,39.5,21.0,33.1,23.3,15.2,85,58,30,30.28,30.06,8,2,15,0.00
2013-3-14,76.5,59.3,38.7,43.3,37.1,32.5,85,50,24,29.97,29.87,4,2,9,0.00
2013-3-15,86.9,62.9,35.8,46.7,36.5,21.7,94,50,13,29.85,29.50,8,2,17,0.00
2013-3-16,47.8,40.5,35.1,42.9,30.8,25.9,86,69,57,29.90,29.64,11,8,18,0.00
2013-3-17,42.1,36.5,30.6,34.4,30.8,25.6,94,80,72,29.85,29.55,5,3,11,0.02
2013-3-18,57.4,45.4,34.0,35.7,25.9,12.4,96,55,22,29.88,29.59,11,4,20,0.02
2013-3-19,48.9,38.3,24.1,35.4,26.7,15.7,80,64,52,30.07,29.92,4,1,8,0.00
2013-3-20,45.9,37.1,23.5,28.2,15.4,7.6,77,45,24,30.27,29.81,5,2,13,0.00
2013-3-21,48.6,39.2,29.5,28.1,17.2,6.1,87,45,23,29.79,29.62,11,6,19,0.00
2013-3-22,44.8,36.1,28.4,33.8,29.8,25.6,91,78,64,29.83,29.71,4,2,10,0.01
2013-3-23,34.7,32.9,28.0,29.9,28.9,26.3,93,85,79,29.86,29.74,12,6,19,0.02
2013-3-24,36.7,29.6,23.4,26.5,18.6,14.9,93,64,50,29.99,29.81,13,9,21,0.00
2013-3-25,34.3,29.9,21.2,20.1,17.1,14.5,75,60,47,30.17,29.99,13,7,19,0.00
2013-3-26,45.9,32.4,15.1,27.4,19.0,9.0,81,60,41,30.26,30.03,6,2,11,0.00
2013-3-27,60.8,49.2,32.4,33.4,28.2,23.4,81,49,33,30.02,29.58,7,3,16,0.00
2013-3-28,68.2,50.8,28.6,40.6,33.0,25.0,87,58,26,30.03,29.92,4,2,9,0.00
2013-3-29,73.2,60.2,38.8,53.6,47.5,35.4,90,66,46,30.01,29.88,6,3,14,0.00
2013-3-30,73.2,62.4,48.0,58.5,53.3,47.1,100,74,53,29.85,29.72,5,2,10,0.45
2013-3-31,66.2,56.1,43.0,46.4,36.8,22.2,96,56,24,29.91,29.76,7,3,14,0.01
2013-4-1,46.0,39.4,30.4,34.8,19.4,10.6,84,49,27,30.16,29.92,9,5,17,0.00
2013-4-2,40.5,37.5,28.9,30.4,23.3,20.3,75,57,54,30.16,30.06,3,2,8,0.00
2013-4-3,44.6,41.1,34.2,34.5,28.9,23.4,81,63,48,30.22,30.06,6,2,12,0.00
2013-4-4,64.8,58.4,38.8,39.6,34.9,30.5,81,45,31,30.05,29.93,4,1,8,0.00
2013-4-5,70.9,56.7,36.3,45.5,40.5,32.8,95,60,34,29.97,29.54,14,5,24,0.09
2013-4-6,77.7,65.2,48.9,47.9,43.7,35.0,79,51,25,29.68,29.49,11,5,20,0.00
2013-4-7,77.4,65.3,43.9,57.6,48.5,39.5,91,59,34,29.68,29.47,8,4,22,0.00
2013-4-8,78.4,67.7,57.9,63.3,59.9,56.7,96,78,57,29.53,29.41,7,3,14,0.00
2013-4-9,72.1,52.4,31.3,62.7,49.0,30.5,100,89,69,29.82,29.33,10,6,21,0.63
2013-4-10,31.8,30.5,29.1,30.6,29.1,27.4,96,94,91,29.87,29.69,0,0,0,0.19
2013-4-11,46.2,36.1,26.2,32.6,27.9,22.2,94,73,53,29.69,29.58,9,3,16,0.32
2013-4-12,55.8,42.8,32.9,35.8,33.4,29.5,87,71,47,29.89,29.81,4,1,7,0.00
2013-4-13,70.5,64.0,52.3,53.6,49.1,39.1,78,60,46,29.80,29.31,11,4,22,0.01
2013-4-14,72.3,62.7,46.0,54.1,37.8,14.8,70,45,17,29.60,29.22,15,7,30,0.71
2013-4-15,55.4,47.8,38.7,39.6,29.6,21.0,83,52,33,29.86,29.58,7,4,15,0.00
2013-4-16,47.1,43.1,37.4,38.3,30.5,28.3,87,62,53,29.98,29.81,6,4,17,0.00
2013-4-17,45.0,42.6,37.9,44.2,41.9,37.2,100,98,88,29.83,29.56,7,3,11,0.71
2013-4-18,39.0,34.7,31.5,34.3,30.7,25.5,95,86,64,29.86,29.57,12,10,20,0.06
2013-4-19,57.9,43.9,28.2,34.9,28.3,-15.1,83,58,37,29.92,29.83,8,4,17,0.00
2013-4-20,64.2,48.8,28.6,42.8,35.1,25.0,87,63,37,29.98,29.83,9,4,26,0.00
2013-4-21,70.0,62.3,46.6,46.2,43.0,39.3,82,52,43,29.97,29.85,12,7,27,0.00
2013-4-22,60.1,50.6,33.4,52.8,46.5,30.5,97,86,68,29.95,29.74,12,4,21,0.37
2013-4-23,35.8,32.7,29.3,31.1,28.8,25.3,100,86,69,30.08,29.95,7,2,11,0.12
2013-4-24,60.3,42.3,23.7,36.3,28.6,19.9,88,63,28,30.10,29.98,6,2,15,0.00
2013-4-25,71.6,54.0,29.3,43.3,35.6,26.4,96,57,23,30.13,29.88,12,4,25,0.00
2013-4-26,61.0,53.6,47.5,52.5,48.9,43.8,96,85,73,30.02,29.86,7,4,18,0.04
2013-4-27,66.9,56.6,48.9,54.7,51.2,47.4,100,84,64,30.00,29.83,4,2,8,0.01
2013-4-28,81.3,66.1,43.5,60.0,54.4,43.0,100,70,41,29.80,29.55,8,4,17,0.00
2013-4-29,86.9,75.0,50.4,62.7,57.9,47.8,94,60,36,29.61,29.38,8,4,24,0.00
2013-4-30,86.2,75.0,57.6,62.6,59.2,52.4,83,60,45,29.61,29.49,11,5,20,0.00
2013-5-1,57.4,45.5,36.3,53.2,41.4,34.5,95,86,66,30.16,29.62,8,5,20,0.33
2013-5-2,52.7,44.8,37.0,34.6,32.8,30.2,83,64,47,30.31,30.14,6,3,9,1.22
2013-5-3,57.9,47.2,31.3,34.0,29.2,21.8,86,55,30,30.16,29.88,10,4,18,0.00
2013-5-4,47.3,43.9,41.2,40.7,37.1,29.1,89,77,59,29.96,29.75,8,3,14,0.00
2013-5-5,65.3,54.4,43.3,50.9,47.1,42.3,96,78,59,29.98,29.93,7,1,8,0.00
2013-5-6,68.9,59.3,40.1,54.9,50.3,39.8,100,75,58,30.00,29.85,4,1,11,0.00
2013-5-7,75.9,65.0,46.4,57.6,54.1,45.3,100,71,49,29.92,29.75,6,3,14,0.00
2013-5-8,79.5,70.5,56.1,63.9,60.1,55.3,97,71,53,29.79,29.65,6,4,15,1.02
2013-5-9,72.3,64.7,54.5,61.4,57.5,53.4,100,79,62,29.84,29.66,4,2,9,0.01
2013-5-10,72.9,65.1,54.7,55.6,52.5,48.6,96,66,46,29.96,29.81,4,1,11,0.01
2013-5-11,68.9,62.6,42.1,48.7,36.6,25.2,97,43,26,30.12,29.88,7,3,17,0.01
2013-5-12,64.4,51.5,38.8,49.3,42.2,36.7,94,72,52,30.14,29.91,7,3,14,0.09
2013-5-13,83.8,67.8,41.4,61.0,53.6,40.8,100,65,43,29.93,29.69,5,2,12,0.00
2013-5-14,92.3,80.2,60.1,58.2,54.0,50.8,74,44,32,29.72,29.60,9,6,19,0.00
2013-5-15,86.4,75.8,64.6,66.9,60.7,55.9,84,62,46,29.72,29.62,7,4,16,0.00
2013-5-16,81.3,71.0,57.2,65.0,62.4,55.8,100,77,53,29.74,29.64,4,2,11,0.00
2013-5-17,84.7,73.8,57.4,65.7,62.6,56.2,100,71,49,29.76,29.62,4,2,11,0.00
2013-5-18,87.1,76.7,62.8,72.9,69.8,60.6,100,81,60,29.68,29.47,8,4,19,0.26
2013-5-19,82.2,72.1,54.9,71.0,62.1,52.7,97,73,53,29.51,29.33,11,3,28,0.48
2013-5-20,76.6,65.9,54.0,64.3,57.8,49.3,97,77,45,29.61,29.47,4,1,10,0.48
2013-5-21,73.8,64.7,52.0,53.6,49.8,45.8,90,62,41,29.67,29.56,4,1,9,0.00
2013-5-22,74.7,65.0,49.1,55.7,51.9,46.8,94,65,50,29.83,29.63,4,1,9,0.00
2013-5-23,51.3,49.6,49.1,49.3,48.4,48.0,97,96,93,29.94,29.85,1,0,2,0.00
2013-5-27,67.6,62.5,59.2,66.5,61.0,58.6,100,95,84,29.51,29.33,5,2,8,1.74
2013-5-28,79.9,67.3,58.3,64.9,60.8,58.0,99,82,54,29.52,29.39,8,3,14,0.56
2013-5-29,68.2,66.0,62.8,67.0,62.1,57.0,96,88,70,29.54,29.43,4,1,7,0.02
2013-5-30,84.9,77.6,66.7,66.0,60.0,55.5,90,57,39,29.62,29.51,2,1,4,0.04
2013-5-31,66.4,60.8,54.3,58.6,52.0,48.6,81,73,63,29.78,29.63,2,1,4,0.00
2013-6-1,72.0,63.0,53.8,57.3,53.1,48.1,85,71,60,29.89,29.78,2,0,4,0.00
2013-6-2,73.4,64.4,48.0,52.5,48.9,45.0,95,61,41,30.00,29.81,2,1,8,0.00
2013-6-3,80.1,66.5,50.9,59.8,54.9,48.8,96,70,48,29.85,29.61,8,4,18,0.01
2013-6-4,88.2,75.4,63.5,69.2,64.3,60.6,96,73,45,29.76,29.57,4,1,9,0.05
2013-6-5,72.3,66.3,60.8,65.5,59.7,56.5,100,81,63,29.90,29.74,3,1,11,1.07
2013-6-6,78.8,68.3,52.5,59.7,55.3,52.0,100,67,44,29.90,29.79,2,0,4,0.00
2013-6-7,81.3,70.5,52.7,58.8,55.4,51.6,100,63,43,29.90,29.74,3,1,8,0.00
2013-6-8,81.0,69.1,61.3,63.7,62.2,60.8,100,82,52,29.65,29.53,5,2,7,0.73
2013-6-9,87.6,75.3,55.2,65.3,59.6,54.4,100,63,38,29.75,29.64,3,1,10,0.01
2013-6-10,93.6,79.8,55.8,73.6,64.9,54.3,97,65,47,29.73,29.55,6,3,11,0.00
2013-6-11,97.0,87.9,78.6,68.7,65.8,63.8,64,49,35,29.68,29.53,8,5,17,0.00
2013-6-12,98.1,87.5,75.6,73.7,68.2,61.6,76,56,38,29.74,29.49,9,2,20,0.00
2013-6-13,88.7,83.3,71.1,66.3,63.5,61.0,83,54,43,29.87,29.75,5,2,11,0.00
2013-6-14,99.3,86.1,68.0,73.5,66.7,60.8,93,59,32,29.80,29.62,8,3,21,0.01
2013-6-15,88.7,79.3,70.5,71.6,67.7,63.7,80,69,47,29.79,29.67,5,2,9,0.00
2013-6-16,90.7,80.6,68.5,72.5,68.5,62.9,97,69,47,29.83,29.71,4,1,10,0.27
2013-6-17,89.6,80.4,66.6,72.7,66.9,60.2,97,67,42,29.85,29.67,3,1,9,0.09
2013-6-18,68.9,67.7,65.7,65.8,64.4,62.0,95,89,86,29.81,29.78,5,2,11,1.85
2013-6-19,89.1,77.3,62.6,70.4,64.5,60.3,100,70,42,29.85,29.72,6,3,15,0.00
2013-6-20,95.2,84.8,69.4,72.6,69.8,65.7,92,65,44,29.75,29.62,10,5,23,0.00
2013-6-21,98.1,87.8,77.2,71.1,68.3,65.8,73,56,38,29.74,29.65,8,5,18,0.00
2013-6-22,96.4,87.7,77.0,68.2,65.7,61.9,72,51,38,29.78,29.62,9,5,25,0.02
2013-6-23,93.9,84.9,70.3,72.7,66.7,61.3,86,59,42,29.72,29.58,6,3,17,0.00
2013-6-24,85.8,83.5,77.5,68.8,67.0,65.7,73,59,55,29.71,29.63,8,5,21,0.00
2013-6-25,99.5,90.3,79.3,72.3,67.9,61.5,79,49,35,29.58,29.44,8,4,12,0.02
2013-6-26,103.3,90.4,69.8,73.9,66.8,59.4,97,53,29,29.72,29.57,4,1,9,0.00
2013-6-27,105.3,86.8,71.8,78.3,72.3,67.5,94,67,34,29.81,29.66,7,2,16,0.00
2013-6-28,95.9,85.7,65.8,74.0,62.6,51.4,100,54,31,29.88,29.77,2,1,8,0.00
2013-6-29,90.9,80.6,62.4,62.9,54.2,44.6,86,47,24,29.84,29.73,3,1,12,0.00
2013-6-30,84.2,75.4,59.9,61.5,55.9,46.3,88,56,32,29.91,29.78,3,1,14,0.00
2013-7-1,86.9,73.8,56.5,56.6,50.6,44.1,86,51,29,30.03,29.93,3,1,10,0.00
2013-7-2,86.9,74.4,56.3,57.6,52.5,44.4,86,52,31,30.00,29.87,3,1,10,0.00
2013-7-3,88.7,74.8,59.0,58.8,52.3,42.5,84,52,26,29.96,29.77,4,1,11,0.00
2013-7-4,91.8,80.2,62.8,59.6,53.1,41.9,73,45,22,29.84,29.69,5,2,13,0.00
2013-7-5,95.0,85.4,70.2,62.5,58.8,53.3,72,45,32,29.77,29.66,9,5,22,0.01
2013-7-6,87.8,80.0,76.1,66.7,64.1,60.8,66,60,47,29.71,29.64,8,4,20,0.00
2013-7-7,100.9,90.5,77.4,65.7,62.2,57.7,65,43,29,29.76,29.67,7,4,17,0.00
2013-7-8,102.4,94.6,77.5,68.7,62.4,59.8,73,38,31,29.85,29.73,8,4,16,0.02
2013-7-9,104.4,91.6,79.5,71.1,68.6,61.6,73,51,33,29.83,29.65,7,2,15,0.09
2013-7-10,95.2,84.6,69.4,74.5,69.7,63.2,97,65,43,29.89,29.79,4,2,11,0.24
2013-7-11,91.4,78.9,68.2,73.3,67.5,63.5,97,72,44,29.97,29.75,8,2,15,0.58
2013-7-12,101.1,87.7,69.3,71.2,67.0,63.1,84,55,35,29.82,29.70,6,3,16,0.00
2013-7-13,80.2,77.1,76.8,71.2,70.7,69.8,82,81,74,29.80,29.73,3,2,8,0.00
2013-7-14,88.0,78.1,70.0,74.2,68.8,58.8,97,76,47,29.90,29.77,5,1,14,0.33
2013-7-15,89.4,75.7,62.4,72.3,64.1,60.1,96,71,42,30.01,28.63,5,2,12,0.02
2013-7-16,92.1,81.1,62.8,68.9,64.8,61.9,100,63,41,30.09,29.98,5,2,11,0.00
2013-7-17,92.7,82.6,68.5,70.8,68.5,65.4,97,66,45,30.17,30.02,4,1,10,0.00
2013-7-18,94.3,85.3,68.7,72.6,67.9,62.7,100,61,41,30.03,29.79,6,3,17,0.00
2013-7-19,98.8,88.0,72.7,70.5,67.9,62.9,89,56,35,29.84,29.68,4,2,11,0.27
2013-7-20,82.0,73.1,70.7,71.6,70.2,69.1,97,91,67,29.77,29.67,5,2,11,0.20
2013-7-21,87.1,77.5,69.8,73.8,71.4,68.9,100,83,62,29.77,29.62,3,1,9,0.00
2013-7-22,94.5,84.3,70.0,76.3,71.9,66.7,100,70,44,29.70,29.59,5,2,15,0.00
2013-7-23,94.1,78.9,67.8,70.5,67.8,64.9,97,72,43,29.83,29.63,6,2,14,0.04
2013-7-24,90.7,79.5,63.7,66.9,62.6,57.6,96,61,37,29.92,29.78,3,1,8,0.00
2013-7-25,79.5,71.4,67.3,72.1,67.4,63.3,99,88,74,29.92,29.81,3,1,9,0.71
2013-7-26,88.5,75.9,64.9,73.9,66.3,61.3,100,76,46,29.95,29.78,3,0,9,0.01
2013-7-27,71.1,62.6,58.3,62.0,58.9,55.8,100,88,66,30.04,29.85,2,0,8,0.12
2013-7-28,63.1,60.4,56.1,62.3,59.9,55.8,100,99,96,29.91,29.81,3,2,8,1.42
2013-7-29,70.9,66.1,61.9,69.6,65.4,61.1,100,99,93,29.83,29.76,3,1,8,0.65
2013-7-30,78.1,70.7,67.6,72.6,69.2,67.3,100,96,83,29.93,29.80,2,0,4,0.01
2013-7-31,88.3,79.2,64.9,74.6,70.8,64.7,100,78,55,30.00,29.88,2,0,5,0.00
2013-8-1,90.5,81.7,66.2,74.2,68.6,65.1,100,69,47,29.97,29.71,5,2,14,0.00
2013-8-2,88.2,69.9,65.1,78.5,67.8,64.4,100,94,69,29.81,29.67,4,2,11,1.03
2013-8-3,85.6,78.4,70.7,76.9,73.4,70.0,100,86,73,29.92,29.73,4,2,14,1.05
2013-8-4,82.4,76.9,71.2,76.4,73.6,70.6,100,90,82,29.93,29.78,4,2,10,1.74
2013-8-5,88.0,77.7,70.0,77.1,73.9,69.1,100,89,67,29.79,29.63,4,1,7,0.00
2013-8-6,91.4,80.0,67.5,77.1,72.1,67.1,100,79,56,29.73,29.60,4,1,9,0.43
2013-8-7,87.3,77.1,69.6,77.3,72.4,67.4,100,87,68,29.83,29.63,3,1,8,0.43
2013-8-8,74.3,69.6,67.5,70.3,67.1,64.5,100,92,81,29.84,29.69,4,1,10,0.21
2013-8-9,80.8,72.7,66.0,69.6,65.6,56.7,100,79,63,29.96,29.81,3,1,7,0.00
2013-8-10,86.9,74.6,61.7,70.3,66.7,61.1,100,79,53,30.05,29.89,3,1,9,0.00
2013-8-11,87.3,78.2,63.5,71.5,67.8,62.6,100,74,53,29.97,29.83,4,2,10,0.00
2013-8-12,76.8,74.6,66.0,72.1,70.8,65.7,100,88,85,29.91,29.83,2,1,4,0.44
2013-8-13,82.6,74.0,62.8,72.4,69.1,61.6,100,86,66,29.97,29.83,4,1,9,0.48
2013-8-14,78.8,72.3,58.5,67.6,62.9,58.2,100,75,58,30.03,29.88,4,2,8,0.48
2013-8-15,83.1,69.2,62.8,71.3,64.4,60.6,96,85,66,29.93,29.76,4,2,11,0.84
2013-8-16,81.9,72.4,61.7,68.8,65.4,61.1,100,81,58,29.98,29.83,4,2,8,0.00
2013-8-17,81.7,76.1,60.1,65.2,61.2,58.3,94,62,52,29.96,29.90,4,2,11,0.00
2013-8-18,79.9,75.1,57.6,64.6,61.9,57.3,100,67,56,29.99,29.85,5,3,13,0.00
2013-8-19,88.7,78.7,63.5,70.4,66.9,62.4,100,71,52,29.92,29.80,5,2,14,0.00
2013-8-20,91.4,74.9,67.3,69.0,67.0,65.8,97,80,46,29.87,29.78,6,2,11,0.00
2013-8-21,94.6,81.9,68.7,69.3,67.7,66.3,93,67,44,29.88,29.78,5,3,14,0.00
2013-8-22,92.5,82.0,68.2,71.3,67.3,61.7,90,64,41,29.93,29.78,4,2,11,0.00
2013-8-23,93.7,80.8,68.0,74.4,71.3,67.3,100,76,48,29.91,29.77,5,2,13,0.00
2013-8-24,96.1,87.5,72.1,73.0,71.0,68.7,94,62,44,29.93,29.82,6,4,13,0.00
2013-8-25,96.4,89.8,74.3,73.0,70.2,68.7,89,55,44,29.98,29.89,4,3,13,0.00
2013-8-26,96.6,87.7,74.7,72.5,69.9,65.9,89,60,41,29.98,29.83,5,3,14,0.00
2013-8-27,96.3,86.2,72.5,70.1,66.3,60.8,87,56,36,29.88,29.78,6,3,14,0.00
2013-8-28,91.0,79.5,66.2,73.6,70.1,65.3,100,76,51,29.90,29.79,3,1,8,0.00
2013-8-29,99.9,86.6,70.3,74.0,68.5,62.3,97,61,33,29.85,29.74,5,2,13,0.00
2013-8-30,102.7,88.0,67.8,71.4,66.1,59.4,93,55,28,29.81,29.66,4,1,9,0.00
2013-8-31,99.9,88.1,73.2,78.2,73.3,67.0,96,67,38,29.74,29.59,4,2,10,0.00
2013-9-1,92.3,79.3,68.5,74.5,68.7,57.8,95,72,49,29.84,29.57,2,1,9,0.00
2013-9-2,87.6,75.5,59.0,65.8,61.2,58.1,100,66,44,29.93,29.81,2,1,8,0.00
2013-9-3,90.3,75.1,56.3,65.8,59.8,54.6,100,66,35,29.95,29.81,3,1,8,0.00
2013-9-4,90.5,78.2,59.0,65.3,59.8,54.4,95,59,35,30.00,29.85,4,2,10,0.00
2013-9-5,94.1,79.7,62.6,67.5,63.4,58.7,95,64,35,30.01,29.87,4,2,12,0.00
2013-9-6,98.8,84.1,64.9,68.4,64.7,59.3,95,59,31,29.94,29.74,5,2,12,0.00
2013-9-7,103.5,87.9,69.3,69.9,66.1,57.2,88,55,27,29.82,29.69,4,2,11,0.00
2013-9-8,103.5,88.6,73.6,68.9,64.6,58.5,76,50,29,29.76,29.64,4,2,14,0.00
2013-9-9,85.3,81.7,71.6,65.3,64.1,60.6,70,57,52,29.76,29.65,4,3,9,0.00
2013-9-10,95.7,87.6,78.3,67.0,63.6,60.0,63,46,36,29.83,29.76,5,3,10,0.00
2013-9-11,96.3,82.2,69.8,74.7,66.4,60.3,100,62,38,29.96,29.84,4,1,9,0.00
2013-9-12,79.2,72.8,69.1,73.9,70.8,67.2,100,94,77,30.06,29.91,2,0,7,0.00
2013-9-13,74.7,67.5,59.0,60.2,56.1,52.0,88,69,50,30.03,29.82,4,1,10,0.00
2013-9-14,84.2,71.1,55.8,65.2,59.6,54.6,96,71,48,29.88,29.69,4,2,13,0.00
2013-9-15,82.6,73.7,61.2,68.8,65.8,59.7,95,77,62,29.95,29.67,3,1,9,0.00
2013-9-16,61.2,59.5,59.4,59.4,59.1,58.7,100,99,93,30.07,29.96,2,1,9,0.00
2013-9-17,59.4,59.4,59.4,59.1,59.1,59.1,99,99,99,29.91,29.68,6,3,14,0.00
2013-9-18,94.3,87.7,59.4,70.5,65.2,59.1,99,50,40,30.35,29.65,8,5,21,0.00
2013-9-19,89.6,79.7,64.0,67.2,64.2,54.4,73,61,47,30.05,29.83,6,3,21,0.00
2013-9-20,76.5,65.4,54.1,53.9,51.1,47.0,91,64,41,30.22,30.06,2,0,6,0.00
2013-9-21,85.5,70.9,49.1,57.8,50.6,42.1,100,58,27,30.09,29.93,4,1,9,0.00
2013-9-22,84.2,72.3,55.9,55.6,50.0,44.7,87,51,31,30.00,29.84,7,4,19,0.00
2013-9-23,82.4,68.5,55.2,53.9,50.9,47.2,81,58,33,29.88,29.72,8,5,24,0.00
2013-9-24,77.0,68.3,55.8,58.8,56.1,53.4,93,67,52,30.00,29.80,3,1,8,0.00
2013-9-25,83.3,68.8,50.0,61.6,55.3,49.5,100,68,41,30.01,29.77,7,3,15,0.00
2013-9-26,95.2,85.0,65.5,62.7,57.8,55.1,75,44,30,29.84,29.74,8,6,21,0.00
2013-9-27,90.5,81.3,70.3,64.3,59.7,55.9,64,50,41,29.93,29.73,8,5,21,0.00
2013-9-28,72.5,62.4,48.0,67.7,50.3,45.2,97,68,43,30.16,29.78,2,0,8,0.39
2013-9-29,78.6,63.0,43.0,54.9,42.3,33.3,100,59,23,30.16,29.91,4,1,11,0.00
2013-9-30,84.0,68.5,45.1,57.2,49.7,44.2,100,59,32,29.94,29.84,5,2,14,0.00
2013-10-1,86.9,70.8,51.1,62.1,56.1,48.5,93,65,40,30.01,29.84,5,1,11,0.00
2013-10-2,85.5,75.4,59.4,69.5,65.2,58.0,100,74,54,30.02,29.82,7,3,16,0.00
2013-10-3,80.2,70.4,63.9,69.8,65.5,60.8,96,85,69,29.91,29.80,6,3,12,0.01
2013-10-4,90.9,76.7,50.0,69.3,58.4,36.0,85,57,25,30.07,29.73,10,4,24,0.04
2013-10-5,63.1,51.8,45.9,35.3,32.9,27.6,64,52,30,30.14,30.00,4,2,11,0.00
2013-10-6,69.6,58.9,45.9,42.5,32.8,8.5,71,46,13,30.10,29.99,2,1,11,0.00
2013-10-7,77.0,60.6,39.6,42.5,35.2,27.3,85,47,21,30.25,30.09,6,2,12,0.00
2013-10-8,81.3,68.1,50.4,48.7,41.1,35.3,71,43,23,30.10,29.95,15,4,22,0.00
2013-10-9,83.3,69.1,52.9,54.8,50.5,45.9,83,56,32,30.05,29.94,12,4,15,0.00
2013-10-10,82.4,68.4,54.9,58.5,55.8,51.2,89,68,44,30.03,29.79,12,4,20,0.00
2013-10-11,81.9,71.3,52.5,61.0,44.9,18.4,81,49,14,30.01,29.76,12,3,18,0.01
2013-10-12,69.4,54.9,43.3,44.8,37.6,26.4,89,59,24,30.30,30.04,4,0,11,0.00
2013-10-13,73.2,58.3,36.5,42.0,32.5,11.8,91,49,13,30.43,30.22,11,3,18,0.00
2013-10-14,65.5,62.1,49.8,61.2,55.3,40.2,100,80,44,30.20,29.82,10,4,19,0.30
2013-10-15,60.6,52.0,42.8,44.4,40.4,37.1,92,67,49,30.21,30.02,4,1,8,0.01
2013-10-16,57.7,47.5,39.0,41.1,37.5,34.6,90,70,44,30.22,30.03,2,0,4,0.00
2013-10-17,62.4,47.9,36.7,44.4,39.5,32.2,96,75,47,30.16,30.01,3,0,6,0.00
2013-10-18,40.1,36.9,32.9,36.3,34.4,30.8,100,91,82,30.27,30.09,3,0,5,0.45
2013-10-19,67.1,46.4,30.0,42.5,36.7,29.8,100,75,35,30.11,29.90,4,1,7,0.12
2013-10-20,68.4,53.9,38.1,46.2,40.6,34.7,91,65,36,30.08,29.86,4,0,8,0.00
2013-10-21,61.7,50.2,36.0,40.8,36.4,32.5,95,63,39,30.23,30.00,4,1,11,0.00
2013-10-22,67.6,56.1,37.9,46.7,40.3,34.0,89,59,36,30.19,29.98,4,1,9,0.00
2013-10-23,67.5,52.4,35.4,44.4,39.3,32.5,97,66,45,30.23,30.06,6,1,10,0.00
2013-10-24,52.9,43.3,30.7,39.2,32.3,23.1,92,69,36,30.49,30.25,6,0,8,0.00
2013-10-25,59.0,48.0,29.3,41.2,27.3,19.0,89,52,25,30.50,30.11,9,2,14,0.00
2013-10-26,65.1,52.0,39.7,45.8,31.3,18.1,96,55,20,30.29,30.10,4,0,9,0.00
2013-10-27,70.9,53.1,27.9,35.6,28.6,24.0,91,49,22,30.18,29.96,9,2,14,0.00
2013-10-28,64.8,53.1,37.8,56.5,47.7,30.8,95,82,73,30.14,29.98,10,3,14,0.09
2013-10-29,67.5,58.4,51.4,65.9,56.7,50.3,100,95,80,30.05,29.93,6,1,11,0.13
2013-10-30,51.8,50.5,48.4,51.3,50.2,38.4,100,99,94,29.99,29.78,2,0,4,0.32
2013-10-31,63.5,53.2,43.9,49.4,42.9,36.5,100,72,43,29.79,29.69,4,1,8,0.00
2013-11-1,63.1,51.8,38.8,44.2,38.3,31.6,87,64,35,30.15,29.79,4,1,7,0.00
2013-11-2,61.2,44.6,33.4,36.4,31.7,25.0,83,64,29,30.35,30.16,4,1,7,0.00
2013-11-3,64.9,55.0,43.0,38.9,35.5,32.2,70,50,36,30.09,29.80,17,6,34,0.13
2013-11-4,63.9,55.4,48.6,44.8,41.1,37.8,80,61,44,30.14,29.75,10,3,18,0.00
2013-11-5,59.9,52.9,39.2,59.0,51.4,38.2,100,95,75,30.11,29.87,8,2,12,0.38
2013-11-6,42.6,36.1,32.5,36.2,32.4,30.2,96,86,75,30.37,30.20,4,1,6,0.38
2013-11-7,57.9,43.5,28.9,40.2,34.6,28.2,100,74,45,30.53,30.23,4,0,7,0.01
2013-11-8,68.5,55.2,40.5,37.2,31.6,24.1,88,48,22,30.18,29.87,16,6,31,0.01
2013-11-9,66.2,53.0,38.5,35.9,34.2,31.3,84,53,28,30.35,30.18,4,1,6,0.00
2013-11-10,63.1,53.7,35.2,48.2,39.3,31.0,94,61,44,30.46,30.19,8,2,14,0.00
2013-11-11,51.1,41.1,27.1,50.8,36.3,11.4,100,84,51,30.74,30.17,10,3,17,0.00
2013-11-12,35.6,26.1,15.8,12.3,6.0,-3.8,74,47,21,30.97,30.64,6,2,8,0.00
2013-11-13,54.0,41.6,24.4,27.7,18.6,11.1,59,43,25,30.60,30.13,12,6,21,0.00
2013-11-14,57.2,46.8,34.0,31.5,24.5,15.1,78,44,31,30.11,29.96,11,3,15,0.00
2013-11-15,60.3,46.4,26.6,47.8,35.2,22.6,91,68,46,29.98,29.58,10,2,14,0.00
2013-11-16,72.0,59.5,52.3,51.8,45.5,31.1,82,63,38,29.55,29.36,13,6,21,0.04
2013-11-17,63.3,54.7,34.5,39.4,23.6,8.6,70,38,15,30.19,29.37,14,4,25,0.00
2013-11-18,60.6,44.3,27.0,31.6,21.9,12.4,85,49,19,30.39,30.16,8,1,11,0.00
2013-11-19,64.2,49.6,28.8,35.6,25.0,16.8,75,45,20,30.22,29.87,16,4,25,0.01
2013-11-20,66.6,56.6,44.4,48.3,39.9,29.0,89,57,41,29.97,29.08,14,4,19,0.00
2013-11-21,45.3,28.8,22.8,42.3,23.7,16.3,89,81,73,30.59,29.98,11,7,21,0.01
2013-11-22,29.1,24.2,18.1,17.1,12.0,8.5,74,60,49,30.76,30.61,8,4,13,0.00
2013-11-23,29.7,25.2,17.2,16.5,11.4,4.5,63,56,46,30.85,30.67,10,4,12,0.00
2013-11-24,29.3,23.5,15.1,11.5,4.6,-4.4,70,48,26,30.74,30.24,8,3,14,0.00
2013-11-25,37.2,29.3,23.9,25.3,19.4,12.6,83,67,53,30.28,30.21,5,1,8,0.00
2013-11-26,38.7,28.7,15.8,24.3,14.3,-1.6,80,58,23,30.50,30.26,14,4,17,0.00
2013-11-27,40.6,27.1,8.8,19.3,9.0,-1.1,73,50,27,30.51,30.13,10,3,14,0.00
2013-11-28,38.8,28.0,19.6,24.0,18.6,13.6,79,68,54,30.50,30.16,8,2,12,0.00
2013-11-29,56.7,38.9,16.2,31.0,23.8,10.6,84,59,35,30.47,30.22,14,3,21,0.00
2013-11-30,52.9,36.2,25.3,35.2,28.1,19.9,89,73,52,30.22,30.13,4,1,5,0.00
2013-12-1,57.6,40.2,20.3,37.9,29.8,16.6,88,69,46,30.19,29.83,4,0,4,0.00
2013-12-2,66.2,48.1,28.6,38.3,32.6,24.1,86,60,30,29.83,29.65,6,1,9,0.00
2013-12-3,67.1,49.6,33.6,39.4,33.8,29.2,89,60,30,29.70,29.56,8,2,14,0.00
2013-12-4,36.5,24.4,16.9,32.4,17.8,4.9,96,76,53,30.22,29.66,11,6,15,0.00
2013-12-5,17.2,15.0,11.5,2.8,-7.1,-12.7,53,38,28,30.45,30.23,9,5,12,0.00
2013-12-6,17.2,11.8,3.7,-9.3,-16.6,-22.0,49,28,21,30.69,30.42,9,4,14,0.00
2013-12-7,19.2,11.2,-1.3,3.3,-10.7,-14.7,59,39,23,30.76,30.27,8,2,12,0.00
2013-12-8,22.3,18.6,5.4,17.5,12.7,-1.1,86,78,49,30.24,30.01,9,2,17,0.00
2013-12-9,10.6,3.3,2.7,0.5,-7.5,-8.6,75,60,58,30.43,30.24,5,1,8,0.00
2013-12-10,42.8,28.4,13.8,19.6,8.9,1.4,64,46,27,30.39,30.16,10,2,12,0.00
2013-12-11,25.5,19.9,11.7,17.8,0.3,-13.3,74,46,23,30.74,30.35,10,3,14,0.00
2013-12-12,49.5,31.6,13.5,19.6,9.9,-3.1,71,43,27,30.52,28.91,9,3,14,0.00
2013-12-13,50.2,37.7,21.6,34.8,28.4,14.6,85,70,55,30.07,29.83,9,3,14,0.00
2013-12-14,33.8,25.6,17.8,20.7,15.4,9.2,77,66,52,30.34,30.11,11,4,14,0.00
2013-12-15,37.2,15.2,15.1,18.8,8.8,8.7,75,75,47,30.17,30.03,0,0,0,0.00
2013-12-16,62.6,42.5,24.1,27.4,20.3,13.9,79,47,21,30.22,30.02,5,1,8,0.00
2013-12-17,53.2,39.8,24.4,31.7,19.0,7.2,87,50,22,30.42,30.19,8,2,12,0.00
2013-12-18,67.8,51.7,33.3,38.1,26.4,18.3,63,43,19,30.15,29.73,11,4,19,0.00
2013-12-19,59.9,47.5,18.0,46.8,38.4,13.4,85,72,56,29.91,29.68,11,2,14,0.00
2013-12-20,21.2,18.0,14.5,12.2,9.1,7.4,81,68,61,30.13,29.94,11,4,15,0.00
2013-12-21,23.0,20.4,19.8,20.9,13.7,11.6,92,75,70,29.91,29.83,8,2,11,0.00
2013-12-22,22.5,16.8,-0.2,19.9,12.5,-8.0,91,83,68,30.40,29.90,10,4,14,0.01
2013-12-23,16.9,12.1,1.0,7.1,4.8,-6.8,79,72,63,30.67,30.42,6,1,8,0.00
2013-12-24,28.0,20.8,10.8,25.8,15.9,4.5,91,81,74,30.47,30.15,13,4,18,0.00
2013-12-25,40.1,23.6,8.4,30.0,18.8,3.8,91,82,67,30.42,30.30,4,1,4,0.06
2013-12-26,42.4,30.7,15.3,28.6,20.8,9.9,85,68,53,30.33,30.23,7,1,10,0.01
2013-12-27,49.3,33.1,11.7,30.2,22.3,6.3,83,67,42,30.40,30.14,4,2,10,0.00
2013-12-28,46.8,38.0,23.5,31.5,27.3,13.5,79,66,53,30.17,29.91,14,3,17,0.01
2013-12-29,19.8,13.4,1.2,9.5,-6.1,-14.7,64,43,24,30.48,30.24,15,5,20,0.00
2013-12-30,35.6,22.3,0.1,21.0,7.8,-12.2,74,54,42,30.35,30.21,8,2,14,0.00
2013-12-31,48.6,34.9,11.5,29.1,22.3,5.2,82,62,46,30.29,30.05,10,3,22,0.00
2014-1-1,22.5,15.5,6.1,15.4,6.9,-3.8,76,68,62,30.45,30.03,14,6,18,0.00
2014-1-2,23.5,14.8,4.1,10.1,3.8,-5.4,72,61,54,30.50,30.35,6,1,9,0.00